Time;durP1;ratioP1;P1;durP2;ratioP2;P2;SDS_P1;SDS_P2;PMS_P1;PMS_P2;Temp;Humidity;BMP_temperature;BMP_pressure;BME280_temperature;BME280_humidity;BME280_pressure;Samples;Min_cycle;Max_cycle;Signal;HPM_P1;HPM_P2
2022/12/23 00:02:11;;;;;;;2.63;1.13;;;10.10;92.10;;;;;;5029961;28;20236;-73
2022/12/23 00:04:36;;;;;;;2.20;1.20;;;10.10;92.40;;;;;;5027589;28;20555;-72
2022/12/23 00:07:02;;;;;;;1.63;1.27;;;10.10;92.50;;;;;;5020866;28;20193;-74
2022/12/23 00:09:28;;;;;;;2.50;1.17;;;10.10;92.50;;;;;;5025895;28;20267;-72
2022/12/23 00:17:21;;;;;;;1.17;1.03;;;10.00;92.80;;;;;;5029000;28;21156;-73
2022/12/23 00:19:47;;;;;;;4.13;2.23;;;10.10;92.80;;;;;;5027747;28;20453;-74
2022/12/23 00:22:12;;;;;;;1.90;1.53;;;10.10;92.80;;;;;;5027467;28;20382;-74
2022/12/23 00:24:38;;;;;;;2.80;1.10;;;10.10;92.80;;;;;;5026331;28;20186;-73
2022/12/23 00:27:03;;;;;;;3.00;1.20;;;10.10;92.90;;;;;;5020101;28;20190;-72
2022/12/23 00:29:29;;;;;;;2.73;1.40;;;10.10;93.00;;;;;;5026851;28;20177;-72
2022/12/23 00:31:55;;;;;;;2.57;1.10;;;10.10;92.90;;;;;;5024933;28;20692;-74
2022/12/23 00:34:20;;;;;;;4.70;1.43;;;10.20;92.90;;;;;;5025814;28;20648;-74
2022/12/23 00:36:46;;;;;;;5.20;1.40;;;10.10;93.10;;;;;;5025991;28;20695;-72
2022/12/23 00:44:40;;;;;;;2.53;1.07;;;10.20;93.30;;;;;;5027329;28;20414;-73
2022/12/23 00:47:06;;;;;;;2.17;1.10;;;10.20;93.30;;;;;;5029556;28;20423;-73
2022/12/23 00:49:40;;;;;;;6.00;1.43;;;10.20;93.30;;;;;;5026788;28;20189;-72
2022/12/23 00:52:09;;;;;;;1.20;0.90;;;10.20;93.30;;;;;;5027209;28;20212;-72
2022/12/23 00:54:35;;;;;;;3.60;1.10;;;10.30;93.30;;;;;;5029796;28;20424;-71
2022/12/23 00:57:01;;;;;;;3.57;1.23;;;10.30;93.20;;;;;;5031168;28;20428;-74
2022/12/23 00:59:27;;;;;;;1.43;1.10;;;10.40;93.10;;;;;;5027446;28;20428;-71
2022/12/23 01:05:37;;;;;;;1.93;0.80;;;10.50;92.80;;;;;;5032114;28;20245;-73
2022/12/23 01:07:32;;;;;;;1.33;0.80;;;10.60;92.70;;;;;;5013753;28;20470;-74
2022/12/23 01:09:57;;;;;;;2.13;0.90;;;10.70;92.60;;;;;;5034659;28;20417;-73
2022/12/23 01:12:23;;;;;;;1.60;0.90;;;10.80;92.50;;;;;;5033907;28;20213;-74
2022/12/23 01:14:48;;;;;;;1.10;0.83;;;10.80;92.50;;;;;;5031088;28;20184;-72
2022/12/23 01:17:14;;;;;;;1.27;0.90;;;10.90;92.50;;;;;;5033568;28;20722;-73
2022/12/23 01:19:40;;;;;;;1.37;1.30;;;10.90;92.60;;;;;;5024899;28;20182;-73
2022/12/23 01:22:05;;;;;;;1.53;0.80;;;10.90;92.60;;;;;;5035904;28;20212;-73
2022/12/23 01:24:31;;;;;;;3.53;1.53;;;10.90;92.50;;;;;;5037697;28;20177;-74
2022/12/23 01:26:57;;;;;;;4.77;0.90;;;11.00;92.40;;;;;;5036621;28;20199;-72
2022/12/23 01:29:24;;;;;;;1.00;0.70;;;11.00;92.30;;;;;;5031801;28;20424;-72
2022/12/23 01:31:49;;;;;;;1.20;0.80;;;11.10;92.00;;;;;;5028656;28;20467;-74
2022/12/23 01:34:15;;;;;;;2.97;0.90;;;11.10;92.10;;;;;;5031945;28;20432;-74
2022/12/23 01:36:40;;;;;;;0.97;0.80;;;11.10;92.20;;;;;;5030849;28;20765;-72
2022/12/23 01:39:06;;;;;;;2.17;0.80;;;11.00;92.50;;;;;;5028879;28;20648;-74
2022/12/23 01:44:45;;;;;;;2.30;0.80;;;11.00;93.00;;;;;;5032051;28;20659;-73
2022/12/23 01:47:50;;;;;;;0.80;0.60;;;11.00;93.10;;;;;;5010396;28;20427;-74
2022/12/23 01:50:28;;;;;;;0.87;0.60;;;11.10;93.00;;;;;;5011707;28;20501;-74
2022/12/23 01:53:18;;;;;;;1.97;0.83;;;11.10;93.00;;;;;;5028114;28;20484;-74
2022/12/23 01:55:53;;;;;;;2.07;0.80;;;11.10;93.00;;;;;;5027991;28;20425;-72
2022/12/23 01:58:26;;;;;;;2.70;0.60;;;11.20;93.00;;;;;;5026933;28;20428;-72
2022/12/23 02:03:42;;;;;;;3.70;0.80;;;11.20;93.00;;;;;;5026403;28;20503;-72
2022/12/23 02:09:16;;;;;;;1.60;1.00;;;11.30;92.90;;;;;;5024515;28;20423;-72
2022/12/23 02:11:47;;;;;;;1.57;0.80;;;11.30;92.80;;;;;;5024491;28;21141;-73
2022/12/23 02:17:41;;;;;;;0.80;0.60;;;11.40;92.80;;;;;;5028980;28;21413;-73
2022/12/23 02:20:31;;;;;;;0.70;0.60;;;11.40;92.50;;;;;;5014827;28;20425;-72
2022/12/23 02:23:24;;;;;;;1.23;0.70;;;11.50;92.70;;;;;;5024791;28;20493;-73
2022/12/23 02:26:00;;;;;;;1.50;0.70;;;11.50;92.70;;;;;;5023830;28;20790;-72
2022/12/23 02:28:32;;;;;;;1.70;0.80;;;11.50;92.70;;;;;;5019870;28;20906;-72
2022/12/23 02:31:11;;;;;;;0.87;0.83;;;11.50;92.70;;;;;;5028297;28;20432;-73
2022/12/23 02:34:03;;;;;;;1.23;0.60;;;11.50;92.70;;;;;;5030626;28;20458;-73
2022/12/23 02:36:42;;;;;;;3.03;0.73;;;11.50;92.90;;;;;;5027867;28;20403;-72
2022/12/23 02:39:20;;;;;;;0.80;0.60;;;11.50;93.00;;;;;;5028646;28;20416;-73
2022/12/23 02:42:13;;;;;;;1.33;0.70;;;11.50;93.30;;;;;;5026769;28;20984;-72
2022/12/23 02:44:47;;;;;;;0.87;0.60;;;11.40;93.60;;;;;;5023647;28;20408;-73
2022/12/23 02:47:23;;;;;;;2.97;1.00;;;11.30;94.00;;;;;;5025098;28;20425;-74
2022/12/23 02:50:02;;;;;;;1.17;0.80;;;11.20;94.50;;;;;;5023436;28;20455;-72
2022/12/23 02:52:33;;;;;;;1.40;0.70;;;11.20;94.80;;;;;;5026910;28;20471;-73
2022/12/23 02:55:11;;;;;;;3.10;0.73;;;11.20;95.10;;;;;;5026154;28;20423;-72
2022/12/23 02:57:40;;;;;;;1.27;0.83;;;11.20;95.40;;;;;;5023339;28;20510;-71
2022/12/23 03:00:06;;;;;;;0.63;0.60;;;11.20;95.50;;;;;;5029056;28;20420;-71
2022/12/23 03:02:34;;;;;;;1.30;0.70;;;11.20;95.60;;;;;;5025803;28;20498;-73
2022/12/23 03:05:00;;;;;;;1.23;0.70;;;11.20;95.70;;;;;;5036263;28;20450;-71
2022/12/23 03:07:37;;;;;;;1.30;0.80;;;11.20;95.80;;;;;;5026981;28;20990;-73
2022/12/23 03:10:16;;;;;;;1.27;0.80;;;11.20;96.00;;;;;;5030726;28;20189;-72
2022/12/23 03:12:53;;;;;;;1.43;0.90;;;11.10;96.10;;;;;;5027246;28;20470;-72
2022/12/23 03:15:45;;;;;;;1.43;0.90;;;11.10;96.30;;;;;;5041014;28;20939;-72
2022/12/23 03:18:24;;;;;;;1.20;0.60;;;11.10;96.40;;;;;;5025022;28;20444;-73
2022/12/23 03:21:10;;;;;;;0.73;0.60;;;11.10;96.50;;;;;;5030053;28;20434;-71
2022/12/23 03:23:48;;;;;;;0.80;0.60;;;11.20;96.50;;;;;;5031079;28;20432;-72
2022/12/23 03:26:22;;;;;;;1.47;0.90;;;11.20;96.40;;;;;;5027983;28;20428;-72
2022/12/23 03:29:15;;;;;;;1.50;0.60;;;11.20;96.40;;;;;;5019833;28;20438;-72
2022/12/23 03:31:43;;;;;;;0.90;0.73;;;11.30;96.30;;;;;;5021806;28;20463;-72
2022/12/23 03:34:13;;;;;;;1.37;0.93;;;11.30;96.10;;;;;;5031453;28;20526;-73
2022/12/23 03:36:48;;;;;;;1.53;0.80;;;11.30;95.90;;;;;;5027373;28;20447;-74
2022/12/23 03:39:19;;;;;;;1.90;0.73;;;11.30;96.00;;;;;;5023275;28;20435;-73
2022/12/23 03:41:59;;;;;;;1.00;0.77;;;11.30;95.90;;;;;;5029839;28;20480;-72
2022/12/23 03:44:33;;;;;;;1.23;0.63;;;11.40;95.90;;;;;;5031155;28;20531;-72
2022/12/23 03:47:15;;;;;;;1.50;0.80;;;11.40;95.90;;;;;;5033471;28;20867;-72
2022/12/23 03:49:46;;;;;;;2.87;0.90;;;11.40;95.90;;;;;;5027812;28;20854;-72
2022/12/23 03:52:16;;;;;;;1.23;0.70;;;11.40;95.90;;;;;;5025491;28;20498;-73
2022/12/23 03:54:54;;;;;;;1.30;0.70;;;11.30;96.00;;;;;;5035035;28;20886;-72
2022/12/23 03:57:38;;;;;;;1.30;0.70;;;11.40;96.00;;;;;;5028484;28;20423;-71
2022/12/23 04:00:05;;;;;;;0.80;0.70;;;11.40;96.10;;;;;;5032810;28;20514;-73
2022/12/23 04:03:05;;;;;;;1.17;0.63;;;11.30;96.20;;;;;;5021431;28;20541;-72
2022/12/23 04:05:36;;;;;;;1.50;0.50;;;11.30;96.20;;;;;;5024937;28;20791;-73
2022/12/23 04:08:25;;;;;;;0.90;0.60;;;11.30;96.40;;;;;;5028855;28;20424;-73
2022/12/23 04:10:51;;;;;;;4.70;0.77;;;11.30;96.30;;;;;;5022231;28;20924;-72
2022/12/23 04:13:17;;;;;;;0.70;0.60;;;11.30;96.40;;;;;;5024080;28;20464;-74
2022/12/23 04:15:42;;;;;;;1.63;0.70;;;11.30;96.40;;;;;;5030220;28;20447;-73
2022/12/23 04:18:09;;;;;;;0.70;0.60;;;11.30;96.40;;;;;;5029690;28;20625;-72
2022/12/23 04:20:35;;;;;;;0.80;0.60;;;11.30;96.30;;;;;;5023472;28;20177;-72
2022/12/23 04:23:01;;;;;;;1.17;0.60;;;11.30;96.30;;;;;;5019767;28;21033;-71
2022/12/23 04:25:27;;;;;;;0.80;0.60;;;11.30;96.20;;;;;;5030015;28;20554;-72
2022/12/23 04:27:53;;;;;;;1.10;0.87;;;11.40;96.20;;;;;;5029040;28;20459;-72
2022/12/23 04:30:18;;;;;;;0.83;0.67;;;11.30;96.20;;;;;;5027811;28;20240;-72
2022/12/23 04:32:44;;;;;;;1.37;1.00;;;11.40;96.10;;;;;;5031611;28;20205;-73
2022/12/23 04:35:10;;;;;;;0.90;0.80;;;11.30;96.10;;;;;;5031277;28;20189;-72
2022/12/23 04:37:36;;;;;;;1.50;0.80;;;11.40;96.20;;;;;;5024697;28;20228;-72
2022/12/23 04:40:01;;;;;;;1.10;0.80;;;11.40;96.10;;;;;;5023733;28;20428;-72
2022/12/23 04:42:27;;;;;;;1.27;0.90;;;11.40;96.10;;;;;;5029309;28;20221;-73
2022/12/23 04:44:52;;;;;;;1.57;0.80;;;11.40;96.10;;;;;;5031339;28;20211;-74
2022/12/23 04:47:18;;;;;;;1.00;0.80;;;11.40;95.90;;;;;;5031120;28;20192;-72
2022/12/23 04:49:43;;;;;;;1.30;0.80;;;11.50;95.80;;;;;;5026177;28;20181;-72
2022/12/23 04:52:09;;;;;;;1.40;0.83;;;11.50;95.60;;;;;;5027085;28;20571;-73
2022/12/23 04:54:34;;;;;;;0.80;0.60;;;11.50;95.50;;;;;;5032994;28;20561;-72
2022/12/23 04:57:00;;;;;;;1.17;0.80;;;11.60;95.30;;;;;;5036594;28;20189;-73
2022/12/23 04:59:26;;;;;;;3.27;0.70;;;11.60;95.10;;;;;;5031206;28;20189;-73
2022/12/23 05:01:51;;;;;;;0.90;0.70;;;11.70;95.00;;;;;;5034377;28;20215;-71
2022/12/23 05:04:17;;;;;;;2.23;0.80;;;11.70;94.80;;;;;;5030511;28;20205;-73
2022/12/23 05:06:43;;;;;;;1.93;0.73;;;11.70;94.70;;;;;;5033113;28;20193;-72
2022/12/23 05:09:09;;;;;;;0.80;0.80;;;11.70;94.50;;;;;;5027182;28;20219;-73
2022/12/23 05:11:34;;;;;;;1.40;0.90;;;11.70;94.30;;;;;;5029889;28;21021;-73
2022/12/23 05:14:00;;;;;;;0.70;0.70;;;11.70;94.30;;;;;;5032575;28;20519;-72
2022/12/23 05:16:25;;;;;;;0.90;0.80;;;11.70;94.20;;;;;;5031778;28;20197;-72
2022/12/23 05:18:51;;;;;;;1.00;0.80;;;11.80;94.20;;;;;;5035132;28;20189;-72
2022/12/23 05:21:17;;;;;;;1.33;0.70;;;11.80;94.20;;;;;;5022130;28;20214;-73
2022/12/23 05:23:43;;;;;;;0.63;0.50;;;11.80;93.90;;;;;;5025845;28;20197;-73
2022/12/23 05:26:08;;;;;;;0.70;0.60;;;11.90;93.80;;;;;;5030449;28;20457;-73
2022/12/23 05:28:34;;;;;;;1.17;0.70;;;12.00;93.60;;;;;;5020542;28;20260;-73
2022/12/23 05:31:01;;;;;;;0.90;0.70;;;12.00;93.30;;;;;;5032492;28;20189;-73
2022/12/23 05:33:27;;;;;;;0.80;0.70;;;12.00;93.20;;;;;;5025414;28;20197;-73
2022/12/23 05:35:53;;;;;;;0.80;0.70;;;12.10;93.10;;;;;;5032926;28;20558;-73
2022/12/23 05:38:19;;;;;;;1.03;0.80;;;12.10;93.00;;;;;;5031367;28;20786;-74
2022/12/23 05:40:45;;;;;;;4.10;0.90;;;12.10;93.00;;;;;;5028399;28;20424;-73
2022/12/23 05:43:10;;;;;;;1.03;0.80;;;12.20;92.90;;;;;;5023498;28;20280;-73
2022/12/23 05:45:36;;;;;;;1.17;0.70;;;12.20;92.90;;;;;;5021622;28;20189;-72
2022/12/23 05:48:02;;;;;;;2.37;1.10;;;12.20;92.90;;;;;;5029870;28;20196;-73
2022/12/23 05:50:27;;;;;;;0.80;0.60;;;12.20;93.10;;;;;;5027855;28;20527;-73
2022/12/23 05:52:56;;;;;;;1.00;0.83;;;12.10;93.20;;;;;;5020990;28;20221;-73
2022/12/23 05:55:25;;;;;;;2.23;1.27;;;12.00;93.30;;;;;;5025271;28;20201;-72
2022/12/23 05:57:51;;;;;;;1.20;1.00;;;12.00;93.60;;;;;;5024101;28;20807;-73
2022/12/23 06:00:17;;;;;;;2.13;1.23;;;11.90;93.90;;;;;;5029337;28;20428;-72
2022/12/23 06:02:43;;;;;;;1.83;1.30;;;11.80;94.10;;;;;;5027259;28;20483;-73
2022/12/23 06:05:10;;;;;;;1.67;1.23;;;11.80;94.30;;;;;;5022141;28;20800;-73
2022/12/23 06:07:37;;;;;;;2.27;1.40;;;11.70;94.40;;;;;;5030686;28;20423;-72
2022/12/23 06:10:04;;;;;;;1.77;1.57;;;11.70;94.80;;;;;;5024484;28;20471;-73
2022/12/23 06:12:30;;;;;;;3.73;1.83;;;11.70;94.90;;;;;;5025839;28;20594;-73
2022/12/23 06:14:55;;;;;;;3.57;1.87;;;11.80;95.00;;;;;;5027938;28;20480;-73
2022/12/23 06:17:21;;;;;;;4.10;2.00;;;11.80;95.00;;;;;;5023859;28;20213;-73
2022/12/23 06:19:47;;;;;;;3.57;1.30;;;11.80;94.90;;;;;;5027061;28;20675;-73
2022/12/23 06:22:13;;;;;;;3.83;1.47;;;11.80;95.00;;;;;;5022243;28;20582;-73
2022/12/23 06:24:39;;;;;;;3.90;1.80;;;11.70;95.00;;;;;;5028961;28;20189;-73
2022/12/23 06:27:04;;;;;;;1.80;1.50;;;11.80;95.10;;;;;;5021487;28;20434;-73
2022/12/23 06:29:30;;;;;;;1.60;1.27;;;11.80;95.00;;;;;;5030417;28;20188;-73
2022/12/23 06:31:55;;;;;;;2.50;1.80;;;11.70;95.00;;;;;;5022057;28;20748;-73
2022/12/23 06:34:21;;;;;;;1.73;1.30;;;11.70;95.20;;;;;;5026084;28;20554;-73
2022/12/23 06:36:47;;;;;;;2.50;1.20;;;11.70;95.10;;;;;;5019726;28;20668;-74
2022/12/23 06:39:13;;;;;;;2.90;1.73;;;11.70;95.20;;;;;;5017499;28;20654;-72
2022/12/23 06:41:39;;;;;;;3.97;1.80;;;11.70;95.40;;;;;;5022299;28;20622;-73
2022/12/23 06:44:04;;;;;;;2.00;1.47;;;11.80;95.30;;;;;;5024416;28;20185;-74
2022/12/23 06:46:30;;;;;;;7.93;2.73;;;11.80;95.40;;;;;;5019743;28;20185;-73
2022/12/23 06:48:55;;;;;;;6.97;3.27;;;11.80;95.30;;;;;;5026217;28;20203;-73
2022/12/23 06:51:21;;;;;;;5.73;3.17;;;11.90;95.20;;;;;;5018257;28;20189;-72
2022/12/23 06:53:47;;;;;;;12.97;5.40;;;11.80;95.10;;;;;;5020976;28;20260;-73
2022/12/23 06:56:12;;;;;;;6.63;3.10;;;11.80;95.10;;;;;;5023996;28;20217;-73
2022/12/23 06:58:38;;;;;;;3.50;1.77;;;11.80;95.10;;;;;;5022318;28;20217;-73
2022/12/23 07:01:03;;;;;;;2.80;2.00;;;11.80;95.10;;;;;;5022849;28;20193;-73
2022/12/23 07:03:29;;;;;;;3.00;1.60;;;11.90;95.00;;;;;;5026713;28;20205;-72
2022/12/23 07:05:54;;;;;;;2.33;1.43;;;11.80;94.90;;;;;;5028919;28;20291;-73
2022/12/23 07:08:20;;;;;;;3.30;1.63;;;11.80;94.90;;;;;;5023153;28;20193;-73
2022/12/23 07:10:46;;;;;;;2.07;1.17;;;11.80;94.90;;;;;;5023348;28;20231;-73
2022/12/23 07:13:11;;;;;;;1.57;1.30;;;11.80;94.90;;;;;;5028013;28;20688;-72
2022/12/23 07:15:37;;;;;;;2.87;1.73;;;11.90;94.90;;;;;;5016732;28;20185;-74
2022/12/23 07:18:04;;;;;;;3.87;1.80;;;11.80;94.90;;;;;;5024685;28;20193;-74
2022/12/23 07:20:30;;;;;;;2.30;1.33;;;11.80;94.80;;;;;;5023197;28;20420;-72
2022/12/23 07:22:56;;;;;;;2.40;1.70;;;11.80;94.70;;;;;;5024502;28;20525;-73
2022/12/23 07:25:22;;;;;;;1.67;1.43;;;11.80;94.60;;;;;;5016525;28;20293;-73
2022/12/23 07:27:52;;;;;;;2.83;2.13;;;11.70;94.70;;;;;;5020351;28;20421;-73
2022/12/23 07:30:18;;;;;;;3.53;2.13;;;11.70;94.90;;;;;;5018416;28;20542;-73
2022/12/23 07:32:47;;;;;;;3.87;2.73;;;11.70;95.00;;;;;;5022265;28;20456;-73
2022/12/23 07:35:13;;;;;;;5.10;3.40;;;11.80;94.90;;;;;;5022481;28;20218;-73
2022/12/23 07:37:38;;;;;;;4.23;3.30;;;11.70;94.90;;;;;;5016970;28;20808;-75
2022/12/23 07:40:04;;;;;;;4.57;3.73;;;11.70;94.90;;;;;;5019847;28;20204;-75
2022/12/23 07:42:30;;;;;;;5.80;3.37;;;11.70;95.00;;;;;;5022893;28;20699;-73
2022/12/23 07:44:56;;;;;;;5.30;3.87;;;11.70;95.10;;;;;;5026357;28;20442;-73
2022/12/23 07:47:22;;;;;;;6.93;3.97;;;11.80;95.10;;;;;;5024337;28;20189;-72
2022/12/23 07:49:47;;;;;;;6.37;3.80;;;11.80;95.10;;;;;;5019245;28;20702;-73
2022/12/23 07:52:13;;;;;;;5.13;3.50;;;11.80;95.10;;;;;;5021549;28;20475;-72
2022/12/23 07:54:39;;;;;;;5.53;3.80;;;11.80;95.00;;;;;;5027549;28;20185;-74
2022/12/23 07:57:04;;;;;;;3.80;3.40;;;11.80;95.00;;;;;;5019507;28;20276;-73
2022/12/23 07:59:30;;;;;;;3.50;2.93;;;11.80;95.00;;;;;;5024960;28;20189;-74
2022/12/23 08:01:55;;;;;;;4.93;3.27;;;11.80;95.10;;;;;;5021991;28;20216;-73
2022/12/23 08:04:21;;;;;;;5.60;3.60;;;11.80;95.20;;;;;;5025211;28;20193;-74
2022/12/23 08:06:47;;;;;;;4.20;2.80;;;11.80;95.20;;;;;;5013484;28;20613;-75
2022/12/23 08:09:12;;;;;;;8.93;3.93;;;11.90;95.30;;;;;;5024349;28;20215;-75
2022/12/23 08:11:38;;;;;;;5.60;3.57;;;11.90;95.20;;;;;;5020025;28;20217;-74
2022/12/23 08:14:03;;;;;;;9.37;3.67;;;11.80;95.00;;;;;;5022136;28;20185;-73
2022/12/23 08:16:29;;;;;;;3.93;3.10;;;11.90;95.10;;;;;;5018615;28;20242;-73
2022/12/23 08:18:54;;;;;;;7.00;3.33;;;11.90;95.10;;;;;;5020960;28;20253;-73
2022/12/23 08:21:20;;;;;;;8.73;3.73;;;12.00;95.10;;;;;;5018937;28;20205;-73
2022/12/23 08:23:47;;;;;;;4.00;3.10;;;12.00;95.00;;;;;;5025429;28;20181;-73
2022/12/23 08:26:19;;;;;;;3.60;3.03;;;12.00;94.90;;;;;;5026205;28;20284;-73
2022/12/23 08:28:45;;;;;;;7.10;3.10;;;12.10;94.70;;;;;;5016340;28;20427;-74
2022/12/23 08:31:12;;;;;;;5.97;2.93;;;12.10;94.40;;;;;;5020688;28;20478;-74
2022/12/23 08:33:39;;;;;;;6.03;3.23;;;12.10;94.20;;;;;;5022149;28;20435;-73
2022/12/23 08:36:06;;;;;;;5.10;3.10;;;12.10;94.10;;;;;;5018734;28;20421;-74
2022/12/23 08:38:33;;;;;;;8.30;3.70;;;12.10;94.10;;;;;;5024401;28;20616;-73
2022/12/23 08:40:58;;;;;;;4.90;3.00;;;12.20;94.00;;;;;;5031725;28;20428;-74
2022/12/23 08:43:24;;;;;;;5.00;2.90;;;12.20;93.90;;;;;;5025392;28;20492;-74
2022/12/23 08:45:50;;;;;;;4.90;3.17;;;12.20;93.90;;;;;;5030705;28;20181;-74
2022/12/23 08:48:16;;;;;;;6.07;3.13;;;12.30;93.80;;;;;;5019706;28;20189;-74
2022/12/23 08:50:44;;;;;;;5.30;3.13;;;12.30;93.70;;;;;;5023711;28;20419;-74
2022/12/23 08:53:10;;;;;;;4.20;2.40;;;12.30;93.60;;;;;;5022231;28;20516;-74
2022/12/23 08:55:41;;;;;;;5.40;2.73;;;12.20;93.50;;;;;;5029146;28;20435;-73
2022/12/23 08:58:07;;;;;;;4.03;1.77;;;12.20;93.40;;;;;;5028671;28;20535;-72
2022/12/23 09:00:33;;;;;;;3.67;2.10;;;12.20;93.30;;;;;;5031556;28;20506;-73
2022/12/23 09:02:59;;;;;;;2.60;2.07;;;12.20;93.40;;;;;;5025768;28;20490;-72
2022/12/23 09:05:25;;;;;;;5.27;4.97;;;12.10;93.30;;;;;;5028406;28;20420;-74
2022/12/23 09:07:51;;;;;;;5.97;4.83;;;12.00;93.40;;;;;;5016151;28;20424;-73
2022/12/23 09:10:16;;;;;;;5.60;2.80;;;12.10;93.40;;;;;;5023379;28;20186;-73
2022/12/23 09:12:42;;;;;;;8.50;3.00;;;12.10;93.60;;;;;;5026289;28;20213;-73
2022/12/23 09:15:08;;;;;;;5.17;3.67;;;12.10;93.80;;;;;;5027940;28;20216;-74
2022/12/23 09:17:33;;;;;;;5.50;3.47;;;12.20;93.70;;;;;;5022570;28;20185;-74
2022/12/23 09:19:59;;;;;;;5.13;3.00;;;12.20;93.60;;;;;;5031366;28;20832;-74
2022/12/23 09:22:24;;;;;;;3.37;2.70;;;12.20;93.50;;;;;;5032360;28;20220;-74
2022/12/23 09:24:50;;;;;;;3.83;2.80;;;12.20;93.50;;;;;;5027861;28;20591;-74
2022/12/23 09:27:16;;;;;;;4.00;3.07;;;12.30;93.50;;;;;;5022649;28;20196;-74
2022/12/23 09:29:42;;;;;;;6.93;3.27;;;12.30;93.50;;;;;;5023951;28;20189;-73
2022/12/23 09:32:07;;;;;;;4.27;2.73;;;12.40;93.50;;;;;;5028413;28;20258;-74
2022/12/23 09:34:33;;;;;;;5.10;2.50;;;12.40;93.40;;;;;;5026137;28;20419;-74
2022/12/23 09:36:58;;;;;;;4.13;2.70;;;12.50;93.20;;;;;;5018722;28;20581;-73
2022/12/23 09:39:24;;;;;;;3.57;2.40;;;12.50;93.20;;;;;;5026944;28;20247;-74
2022/12/23 09:42:23;;;;;;;3.23;2.50;;;12.50;92.90;;;;;;5025906;28;20221;-74
2022/12/23 09:45:19;;;;;;;3.63;2.73;;;12.60;92.80;;;;;;5023458;28;20265;-73
2022/12/23 09:47:45;;;;;;;5.93;3.33;;;12.60;92.70;;;;;;5021629;28;20772;-74
2022/12/23 09:50:31;;;;;;;5.20;2.53;;;12.60;92.50;;;;;;5023005;28;20419;-74
2022/12/23 09:53:06;;;;;;;6.67;2.47;;;12.60;92.40;;;;;;5026750;28;20232;-73
2022/12/23 09:55:52;;;;;;;6.33;3.57;;;12.60;92.30;;;;;;5023001;28;20419;-74
2022/12/23 09:58:39;;;;;;;3.70;2.47;;;12.60;92.20;;;;;;5023696;28;20973;-74
2022/12/23 10:01:08;;;;;;;3.53;2.60;;;12.60;92.30;;;;;;5024435;28;20437;-72
2022/12/23 10:04:08;;;;;;;2.40;1.50;;;12.70;92.40;;;;;;5019571;28;20469;-72
2022/12/23 10:06:35;;;;;;;2.20;1.60;;;12.60;92.20;;;;;;4941627;28;21005;-73
2022/12/23 10:09:04;;;;;;;3.27;2.10;;;12.70;92.00;;;;;;5019046;28;20421;-74
2022/12/23 10:11:38;;;;;;;8.50;2.70;;;12.70;92.10;;;;;;5026570;28;20458;-74
2022/12/23 10:14:19;;;;;;;3.27;2.30;;;12.70;92.20;;;;;;5029809;28;20427;-75
2022/12/23 10:16:49;;;;;;;5.23;2.77;;;12.70;92.20;;;;;;5027934;28;20432;-75
2022/12/23 10:19:40;;;;;;;2.00;1.50;;;12.80;92.20;;;;;;5025033;28;20430;-76
2022/12/23 10:22:31;;;;;;;2.37;1.50;;;12.80;92.10;;;;;;5028163;28;20552;-74
2022/12/23 10:24:59;;;;;;;2.13;1.40;;;12.70;92.00;;;;;;5024126;28;20436;-75
2022/12/23 10:27:51;;;;;;;2.40;1.63;;;12.70;92.00;;;;;;5018164;28;20477;-75
2022/12/23 10:30:22;;;;;;;2.83;1.90;;;12.70;91.90;;;;;;5020377;28;20451;-75
2022/12/23 10:33:06;;;;;;;1.90;1.30;;;12.80;92.10;;;;;;5024993;28;20478;-73
2022/12/23 10:35:44;;;;;;;2.73;1.70;;;12.90;92.00;;;;;;5024948;28;20916;-74
2022/12/23 10:38:37;;;;;;;2.37;1.50;;;13.00;91.90;;;;;;5033232;28;20426;-75
2022/12/23 10:41:29;;;;;;;4.17;2.17;;;13.10;91.70;;;;;;5019388;28;20446;-74
2022/12/23 10:44:21;;;;;;;2.20;1.80;;;13.10;91.50;;;;;;5025066;28;20543;-72
2022/12/23 10:47:18;;;;;;;4.47;2.23;;;13.20;91.30;;;;;;5023557;28;20416;-73
2022/12/23 10:50:11;;;;;;;4.10;2.37;;;13.20;91.20;;;;;;5009162;28;21110;-76
2022/12/23 10:52:40;;;;;;;3.80;2.13;;;13.30;91.30;;;;;;5020387;28;20562;-75
2022/12/23 10:55:18;;;;;;;5.00;2.30;;;13.30;90.90;;;;;;5028204;28;20428;-75
2022/12/23 10:57:44;;;;;;;4.10;2.10;;;13.30;90.90;;;;;;5025315;28;20507;-74
2022/12/23 11:00:21;;;;;;;4.47;2.30;;;13.30;90.90;;;;;;5023423;28;20938;-73
2022/12/23 11:03:05;;;;;;;3.50;2.30;;;13.30;90.80;;;;;;5024626;28;20229;-73
2022/12/23 11:05:33;;;;;;;4.13;2.20;;;13.30;90.80;;;;;;5019768;28;20450;-74
2022/12/23 11:07:59;;;;;;;3.37;1.90;;;13.30;90.90;;;;;;5016028;28;20435;-75
2022/12/23 11:10:31;;;;;;;2.47;1.60;;;13.20;91.10;;;;;;5026885;28;20439;-76
2022/12/23 11:12:57;;;;;;;1.83;1.60;;;13.20;91.20;;;;;;5021971;28;20484;-75
2022/12/23 11:15:26;;;;;;;1.70;1.60;;;13.20;91.40;;;;;;5027496;28;20432;-76
2022/12/23 11:18:00;;;;;;;3.43;2.50;;;13.20;91.50;;;;;;5023251;28;20920;-76
2022/12/23 11:20:27;;;;;;;3.07;1.80;;;13.10;91.70;;;;;;5019004;28;20478;-76
2022/12/23 11:23:00;;;;;;;2.70;1.90;;;13.20;91.90;;;;;;5029399;28;20549;-73
2022/12/23 11:25:33;;;;;;;5.20;2.00;;;13.10;91.90;;;;;;5025428;28;20427;-75
2022/12/23 11:28:12;;;;;;;3.03;1.70;;;13.10;92.10;;;;;;5025743;28;20590;-74
2022/12/23 11:30:53;;;;;;;3.10;1.77;;;13.00;92.40;;;;;;5022453;28;20843;-75
2022/12/23 11:33:24;;;;;;;3.30;1.83;;;13.00;92.60;;;;;;5025659;28;21171;-73
2022/12/23 11:36:06;;;;;;;2.03;1.57;;;13.00;92.70;;;;;;5027366;28;20499;-75
2022/12/23 11:38:35;;;;;;;3.07;2.00;;;13.10;92.70;;;;;;5020256;28;20441;-74
2022/12/23 11:41:02;;;;;;;5.20;1.57;;;13.10;92.70;;;;;;5027984;28;20424;-74
2022/12/23 11:43:28;;;;;;;3.10;1.43;;;13.10;92.70;;;;;;5022575;28;20490;-75
2022/12/23 11:46:16;;;;;;;2.37;1.50;;;13.20;92.70;;;;;;5028239;28;20922;-74
2022/12/23 11:48:42;;;;;;;3.23;1.83;;;13.30;92.40;;;;;;5018217;28;21198;-74
2022/12/23 11:51:07;;;;;;;4.07;2.53;;;13.30;92.30;;;;;;5019408;28;20476;-77
2022/12/23 11:53:35;;;;;;;3.63;1.70;;;13.30;92.30;;;;;;5020636;28;20232;-76
2022/12/23 11:56:10;;;;;;;2.93;1.63;;;13.40;92.30;;;;;;5022816;28;20181;-74
2022/12/23 11:58:53;;;;;;;2.57;1.60;;;13.50;92.10;;;;;;5017554;28;20526;-75
2022/12/23 12:01:22;;;;;;;2.33;1.50;;;13.50;91.80;;;;;;5021761;28;20470;-75
2022/12/23 12:03:58;;;;;;;1.73;1.40;;;13.60;91.70;;;;;;5024573;28;20927;-75
2022/12/23 12:06:25;;;;;;;1.40;1.20;;;13.60;91.60;;;;;;5025765;28;20819;-73
2022/12/23 12:08:54;;;;;;;2.10;1.27;;;13.50;91.60;;;;;;5032214;28;20452;-75
2022/12/23 12:11:51;;;;;;;2.30;1.23;;;13.50;91.80;;;;;;5020083;28;20820;-75
2022/12/23 12:14:41;;;;;;;1.20;1.10;;;13.50;91.90;;;;;;5043130;28;20428;-73
2022/12/23 12:17:16;;;;;;;2.57;1.20;;;13.50;92.00;;;;;;5019289;28;20429;-76
2022/12/23 12:20:28;;;;;;;1.63;1.20;;;13.40;92.10;;;;;;5023391;28;20516;-74
2022/12/23 12:23:04;;;;;;;2.00;1.40;;;13.40;92.30;;;;;;5005567;28;20518;-74
2022/12/23 12:25:52;;;;;;;4.87;1.73;;;13.40;92.40;;;;;;5024147;28;20828;-73
2022/12/23 12:28:22;;;;;;;1.67;1.43;;;13.30;92.40;;;;;;5026611;28;20867;-74
2022/12/23 12:31:01;;;;;;;10.53;2.33;;;13.30;92.60;;;;;;5021520;28;20424;-73
2022/12/23 12:33:47;;;;;;;2.30;1.70;;;13.30;92.80;;;;;;5028111;28;20508;-74
2022/12/23 12:36:18;;;;;;;2.93;1.90;;;13.30;92.80;;;;;;5018274;28;21008;-74
2022/12/23 12:38:47;;;;;;;3.30;1.63;;;13.30;92.80;;;;;;5024566;28;20523;-75
2022/12/23 12:41:13;;;;;;;2.53;1.60;;;13.30;92.70;;;;;;5026944;28;20602;-73
2022/12/23 12:43:51;;;;;;;2.23;1.77;;;13.30;92.60;;;;;;5030163;28;20436;-74
2022/12/23 12:46:42;;;;;;;3.80;1.63;;;13.30;92.60;;;;;;5030132;28;20188;-74
2022/12/23 12:49:23;;;;;;;2.10;1.50;;;13.30;92.50;;;;;;5016205;28;20416;-74
2022/12/23 12:51:58;;;;;;;2.20;1.37;;;13.30;92.50;;;;;;5025549;28;20451;-74
2022/12/23 12:54:26;;;;;;;1.90;1.33;;;13.30;92.40;;;;;;5029925;28;20422;-74
2022/12/23 12:56:57;;;;;;;1.80;1.50;;;13.40;92.50;;;;;;5029053;28;20462;-73
2022/12/23 12:59:28;;;;;;;2.57;1.63;;;13.40;92.30;;;;;;5021200;28;20428;-75
2022/12/23 13:02:28;;;;;;;7.23;1.50;;;13.40;92.20;;;;;;5026161;28;20485;-75
2022/12/23 13:05:15;;;;;;;2.37;1.70;;;13.40;92.00;;;;;;5043141;28;20498;-73
2022/12/23 13:08:09;;;;;;;3.00;1.67;;;13.50;91.90;;;;;;5026560;28;20413;-75
2022/12/23 13:10:48;;;;;;;4.30;1.57;;;13.50;91.90;;;;;;5024359;28;20511;-74
2022/12/23 13:13:31;;;;;;;4.07;2.03;;;13.50;91.80;;;;;;5030658;28;20462;-74
2022/12/23 13:16:01;;;;;;;3.13;1.80;;;13.60;91.40;;;;;;5027689;28;20456;-74
2022/12/23 13:18:51;;;;;;;2.03;1.50;;;13.60;91.40;;;;;;5025732;28;20424;-73
2022/12/23 13:21:27;;;;;;;3.43;1.70;;;13.60;91.40;;;;;;5026019;28;20412;-74
2022/12/23 13:24:05;;;;;;;3.00;1.60;;;13.60;91.30;;;;;;5028701;28;20495;-74
2022/12/23 13:26:59;;;;;;;1.90;1.30;;;13.60;91.20;;;;;;5016851;28;20418;-75
2022/12/23 13:29:43;;;;;;;3.23;1.90;;;13.60;91.00;;;;;;5027121;28;20421;-75
2022/12/23 13:32:45;;;;;;;2.70;1.63;;;13.70;91.00;;;;;;5022272;28;20471;-74
2022/12/23 13:35:24;;;;;;;2.90;1.40;;;13.60;91.00;;;;;;5024686;28;20967;-73
2022/12/23 13:38:11;;;;;;;3.03;1.40;;;13.70;91.00;;;;;;5025540;28;20818;-75